Time;durP1;ratioP1;P1;durP2;ratioP2;P2;SDS_P1;SDS_P2;PMS_P1;PMS_P2;Temp;Humidity;BMP_temperature;BMP_pressure;BME280_temperature;BME280_humidity;BME280_pressure;Samples;Min_cycle;Max_cycle;Signal;HPM_P1;HPM_P2
2020/12/19 00:02:08;;;;;;;11.20;8.70;;;2.40;95.80;;;;;;5088924;28;20530;-82
2020/12/19 00:04:40;;;;;;;11.80;9.13;;;2.50;95.20;;;;;;5092896;28;20427;-81
2020/12/19 00:07:07;;;;;;;11.93;9.32;;;2.40;95.70;;;;;;5094870;28;20392;-82
2020/12/19 00:09:35;;;;;;;11.80;9.73;;;2.40;95.70;;;;;;5099634;28;20406;-81
2020/12/19 00:12:02;;;;;;;12.60;10.18;;;2.40;95.70;;;;;;5094143;28;20408;-82
2020/12/19 00:14:29;;;;;;;12.73;9.60;;;2.40;95.80;;;;;;5087559;28;20475;-81
2020/12/19 00:16:55;;;;;;;12.32;9.65;;;2.40;95.80;;;;;;5110855;28;20963;-82
2020/12/19 00:19:22;;;;;;;11.63;9.05;;;2.40;95.70;;;;;;5093195;28;20416;-81
2020/12/19 00:21:49;;;;;;;11.40;8.50;;;2.40;95.70;;;;;;5112262;28;20416;-82
2020/12/19 00:24:15;;;;;;;11.27;8.57;;;2.40;95.80;;;;;;5111738;28;20817;-82
2020/12/19 00:26:44;;;;;;;9.63;8.18;;;2.40;95.80;;;;;;5091163;28;20459;-82
2020/12/19 00:29:12;;;;;;;9.65;7.40;;;2.40;95.50;;;;;;5094911;28;20503;-82
2020/12/19 00:31:39;;;;;;;10.40;7.97;;;2.40;95.50;;;;;;5080340;28;20412;-82
2020/12/19 00:34:07;;;;;;;9.68;7.70;;;2.40;95.70;;;;;;5094073;28;20443;-82
2020/12/19 00:36:34;;;;;;;10.48;8.27;;;2.40;95.70;;;;;;5091545;28;20808;-81
2020/12/19 00:39:01;;;;;;;9.73;7.90;;;2.40;95.70;;;;;;5113448;28;20477;-82
2020/12/19 00:41:28;;;;;;;8.85;7.50;;;2.40;95.60;;;;;;5082414;28;20459;-82
2020/12/19 00:43:55;;;;;;;9.13;7.30;;;2.40;95.60;;;;;;5092915;28;21253;-82
2020/12/19 00:46:22;;;;;;;8.90;7.33;;;2.40;95.30;;;;;;5086147;28;20425;-81
2020/12/19 00:48:49;;;;;;;8.63;7.43;;;2.40;95.40;;;;;;5110406;28;20956;-81
2020/12/19 00:51:18;;;;;;;9.00;7.30;;;2.40;95.50;;;;;;5087713;28;20424;-82
2020/12/19 00:53:45;;;;;;;8.18;6.88;;;2.40;95.50;;;;;;5099077;28;20449;-82
2020/12/19 00:56:28;;;;;;;8.13;6.60;;;2.40;95.50;;;;;;5109869;28;20412;-81
2020/12/19 00:58:55;;;;;;;7.90;6.72;;;2.40;95.30;;;;;;5093686;28;20453;-82
2020/12/19 01:01:24;;;;;;;8.80;7.13;;;2.40;95.30;;;;;;5094080;28;20953;-82
2020/12/19 01:04:00;;;;;;;9.07;7.18;;;2.30;95.40;;;;;;5109477;28;21102;-81
2020/12/19 01:06:28;;;;;;;10.18;8.23;;;2.40;95.60;;;;;;5111512;28;20940;-81
2020/12/19 01:09:02;;;;;;;12.00;8.20;;;2.40;95.70;;;;;;5076898;28;20414;-81
2020/12/19 01:11:34;;;;;;;13.02;9.02;;;2.40;95.70;;;;;;5106505;28;20408;-81
2020/12/19 01:14:02;;;;;;;12.13;9.35;;;2.40;95.70;;;;;;5089373;28;20465;-81
2020/12/19 01:16:32;;;;;;;10.77;8.88;;;2.40;95.70;;;;;;5097221;28;20470;-82
2020/12/19 01:19:04;;;;;;;12.82;9.27;;;2.40;95.60;;;;;;5096918;28;20481;-82
2020/12/19 01:21:32;;;;;;;11.45;9.00;;;2.40;95.50;;;;;;5097763;28;20602;-82
2020/12/19 01:23:59;;;;;;;11.77;8.98;;;2.40;95.70;;;;;;5112922;28;20420;-81
2020/12/19 01:26:26;;;;;;;15.07;10.93;;;2.40;95.70;;;;;;5097552;28;20454;-82
2020/12/19 01:28:53;;;;;;;21.53;14.67;;;2.40;95.70;;;;;;5096168;28;21073;-82
2020/12/19 01:31:22;;;;;;;27.95;17.95;;;2.40;95.60;;;;;;5105495;28;20409;-81
2020/12/19 01:33:50;;;;;;;28.98;18.67;;;2.40;95.70;;;;;;5075678;28;20411;-81
2020/12/19 01:36:20;;;;;;;31.55;19.92;;;2.40;95.70;;;;;;5095615;28;20539;-82
2020/12/19 01:38:46;;;;;;;31.45;20.02;;;2.30;95.90;;;;;;5088976;28;20418;-81
2020/12/19 01:41:14;;;;;;;31.17;19.10;;;2.30;96.10;;;;;;5077601;28;20883;-81
2020/12/19 01:43:53;;;;;;;31.57;19.37;;;2.30;96.00;;;;;;5080319;28;20392;-82
2020/12/19 01:46:41;;;;;;;29.48;19.20;;;2.20;96.10;;;;;;5096589;28;20469;-81
2020/12/19 01:49:08;;;;;;;29.88;18.95;;;2.20;96.20;;;;;;5117588;28;20796;-81
2020/12/19 01:51:37;;;;;;;30.42;19.25;;;2.10;96.20;;;;;;5094813;28;20481;-81
2020/12/19 01:54:07;;;;;;;31.08;19.38;;;2.20;96.30;;;;;;5113572;28;20475;-82
2020/12/19 01:56:56;;;;;;;29.67;18.63;;;2.10;96.20;;;;;;5095167;28;20536;-81
2020/12/19 01:59:24;;;;;;;29.42;18.73;;;2.20;96.10;;;;;;5117089;28;20472;-81
2020/12/19 02:01:53;;;;;;;29.73;19.30;;;2.10;96.10;;;;;;5085752;28;20444;-80
2020/12/19 02:04:21;;;;;;;29.42;18.92;;;2.10;96.20;;;;;;5096233;28;20430;-82
2020/12/19 02:06:58;;;;;;;29.77;18.97;;;2.10;96.20;;;;;;5081155;28;20455;-81
2020/12/19 02:09:33;;;;;;;29.30;18.60;;;2.10;96.20;;;;;;5078826;28;20426;-81
2020/12/19 02:11:59;;;;;;;27.90;17.77;;;2.10;96.20;;;;;;5106789;28;20476;-81
2020/12/19 02:14:29;;;;;;;25.27;17.00;;;2.10;96.30;;;;;;5095569;28;20407;-81
2020/12/19 02:17:02;;;;;;;28.80;18.13;;;2.10;96.30;;;;;;5078435;28;20520;-81
2020/12/19 02:19:30;;;;;;;25.85;16.75;;;2.10;96.30;;;;;;5099236;28;20412;-81
2020/12/19 02:21:58;;;;;;;25.83;17.17;;;2.10;96.20;;;;;;5102925;28;20821;-81
2020/12/19 02:24:25;;;;;;;27.20;17.80;;;2.00;96.20;;;;;;5088463;28;20851;-81
2020/12/19 02:26:56;;;;;;;26.40;16.85;;;2.00;96.20;;;;;;5107825;28;20398;-81
2020/12/19 02:29:24;;;;;;;25.02;16.85;;;2.00;96.20;;;;;;5078223;28;20443;-82
2020/12/19 02:31:51;;;;;;;26.58;17.40;;;2.00;96.20;;;;;;5090879;28;20465;-81
2020/12/19 02:34:17;;;;;;;24.40;16.13;;;2.00;96.20;;;;;;5080145;28;20898;-81
2020/12/19 02:36:44;;;;;;;27.80;17.52;;;2.10;96.20;;;;;;5095769;28;20469;-81
2020/12/19 02:39:11;;;;;;;27.10;16.30;;;2.10;96.20;;;;;;5094861;28;20905;-82
2020/12/19 02:41:40;;;;;;;27.35;17.35;;;2.00;96.10;;;;;;5113736;28;20416;-82
2020/12/19 02:44:09;;;;;;;26.92;17.58;;;2.00;96.20;;;;;;5109590;28;20428;-81
2020/12/19 02:46:35;;;;;;;25.08;16.27;;;2.00;96.20;;;;;;5094285;28;20516;-81
2020/12/19 02:49:03;;;;;;;27.15;17.35;;;2.00;96.20;;;;;;5082987;28;20398;-82
2020/12/19 02:51:30;;;;;;;24.90;16.50;;;2.00;96.20;;;;;;5088884;28;20412;-81
2020/12/19 02:53:57;;;;;;;27.25;16.85;;;2.00;96.20;;;;;;5084024;28;20398;-81
2020/12/19 02:56:23;;;;;;;26.60;16.55;;;2.00;96.20;;;;;;5098011;28;20405;-82
2020/12/19 02:58:49;;;;;;;26.43;16.70;;;2.00;96.20;;;;;;5113890;28;20404;-81
2020/12/19 03:01:16;;;;;;;24.38;16.48;;;2.00;96.20;;;;;;5114050;28;20792;-81
2020/12/19 03:03:43;;;;;;;25.30;16.67;;;2.00;96.20;;;;;;5090118;28;20416;-81
2020/12/19 03:06:26;;;;;;;24.88;17.00;;;2.00;96.20;;;;;;5093434;28;20403;-81
2020/12/19 03:08:52;;;;;;;25.52;16.65;;;2.00;96.10;;;;;;5089828;28;20805;-81
2020/12/19 03:11:19;;;;;;;26.25;16.42;;;2.00;96.00;;;;;;5081203;28;20461;-81
2020/12/19 03:13:46;;;;;;;24.75;17.02;;;2.00;96.10;;;;;;5113716;28;20432;-82
2020/12/19 03:16:15;;;;;;;25.30;16.75;;;1.90;96.30;;;;;;5088223;28;20478;-82
2020/12/19 03:18:42;;;;;;;26.30;16.90;;;1.90;96.20;;;;;;5115089;28;20457;-81
2020/12/19 03:21:08;;;;;;;27.75;17.95;;;1.90;96.20;;;;;;5091718;28;20517;-81
2020/12/19 03:23:35;;;;;;;24.00;16.70;;;1.90;96.30;;;;;;5112787;28;20441;-81
2020/12/19 03:26:02;;;;;;;25.33;17.23;;;1.90;96.30;;;;;;5093122;28;20918;-81
2020/12/19 03:28:29;;;;;;;25.92;17.05;;;1.90;96.20;;;;;;5115412;28;20400;-81
2020/12/19 03:30:56;;;;;;;24.77;16.63;;;1.90;96.30;;;;;;5084043;28;20402;-81
2020/12/19 03:33:22;;;;;;;25.08;16.88;;;1.90;96.40;;;;;;5088332;28;20408;-81
2020/12/19 03:35:49;;;;;;;25.50;16.80;;;1.90;96.40;;;;;;5092004;28;20943;-81
2020/12/19 03:38:18;;;;;;;25.15;16.65;;;1.90;96.30;;;;;;5115069;28;20763;-81
2020/12/19 03:40:45;;;;;;;24.58;16.08;;;1.90;96.20;;;;;;5109116;28;20412;-81
2020/12/19 03:43:11;;;;;;;24.00;15.32;;;1.80;96.20;;;;;;5106767;28;20408;-82
2020/12/19 03:45:40;;;;;;;24.15;16.20;;;1.80;96.20;;;;;;5112112;28;20967;-82
2020/12/19 03:48:06;;;;;;;23.10;15.57;;;1.80;96.20;;;;;;5090594;28;20416;-82
2020/12/19 03:50:33;;;;;;;22.27;15.77;;;1.80;96.30;;;;;;5095057;28;21094;-81
2020/12/19 03:52:59;;;;;;;21.80;15.00;;;1.80;96.20;;;;;;5091015;28;20416;-81
2020/12/19 03:55:26;;;;;;;21.15;15.15;;;1.80;96.30;;;;;;5112103;28;20444;-81
2020/12/19 03:57:55;;;;;;;22.30;15.07;;;1.80;96.20;;;;;;5078022;28;20408;-81
2020/12/19 04:00:21;;;;;;;23.33;14.80;;;1.80;96.10;;;;;;5103718;28;20444;-82
2020/12/19 04:02:48;;;;;;;22.07;15.27;;;1.70;96.20;;;;;;5091553;28;20415;-81
2020/12/19 04:05:15;;;;;;;22.17;15.60;;;1.70;96.20;;;;;;5094269;28;20507;-82
2020/12/19 04:07:42;;;;;;;21.58;14.52;;;1.70;96.20;;;;;;5093557;28;20438;-82
2020/12/19 04:10:09;;;;;;;20.02;14.05;;;1.70;96.40;;;;;;5094048;28;20781;-82
2020/12/19 04:12:36;;;;;;;22.43;15.13;;;1.70;96.20;;;;;;5088633;28;20404;-81
2020/12/19 04:15:09;;;;;;;20.15;14.07;;;1.70;96.30;;;;;;5097529;28;20455;-81
2020/12/19 04:17:36;;;;;;;20.63;14.60;;;1.70;96.30;;;;;;5094270;28;20408;-81
2020/12/19 04:20:08;;;;;;;21.02;14.52;;;1.70;96.30;;;;;;5078718;28;20462;-82
2020/12/19 04:22:35;;;;;;;20.83;14.57;;;1.70;96.30;;;;;;5093610;28;20420;-82
2020/12/19 04:25:02;;;;;;;21.70;14.50;;;1.70;96.30;;;;;;5091949;28;20457;-81
2020/12/19 04:27:28;;;;;;;20.27;14.53;;;1.60;96.30;;;;;;5102683;28;20438;-82
2020/12/19 04:29:55;;;;;;;22.98;14.73;;;1.60;96.30;;;;;;5095230;28;20438;-82
2020/12/19 04:32:21;;;;;;;22.07;14.90;;;1.60;96.40;;;;;;5074526;28;20398;-82
2020/12/19 04:34:48;;;;;;;20.90;14.38;;;1.60;96.40;;;;;;5091033;28;20896;-81
2020/12/19 04:37:22;;;;;;;22.60;14.80;;;1.60;96.40;;;;;;5096916;28;20420;-82
2020/12/19 04:39:49;;;;;;;21.67;14.60;;;1.60;96.30;;;;;;5086738;28;20439;-81
2020/12/19 04:42:15;;;;;;;20.98;14.20;;;1.60;96.20;;;;;;5094038;28;20415;-82
2020/12/19 04:44:42;;;;;;;20.05;14.20;;;1.60;96.20;;;;;;5090335;28;20497;-82
2020/12/19 04:47:09;;;;;;;22.55;15.07;;;1.60;96.20;;;;;;5095786;28;20396;-83
2020/12/19 04:49:39;;;;;;;23.20;14.40;;;1.60;96.30;;;;;;5107767;28;20528;-81
2020/12/19 04:52:05;;;;;;;21.07;14.50;;;1.60;96.00;;;;;;5108177;28;20918;-81
2020/12/19 04:54:32;;;;;;;20.38;14.35;;;1.60;96.20;;;;;;5091961;28;20410;-82
2020/12/19 04:57:00;;;;;;;21.08;14.48;;;1.60;96.30;;;;;;5091771;28;20406;-81
2020/12/19 04:59:27;;;;;;;20.05;14.15;;;1.60;96.30;;;;;;5074333;28;20406;-82
2020/12/19 05:01:56;;;;;;;19.73;14.23;;;1.60;96.20;;;;;;5086945;28;20759;-82
2020/12/19 05:04:23;;;;;;;20.87;14.40;;;1.60;96.20;;;;;;5093121;28;20509;-82
2020/12/19 05:06:51;;;;;;;21.20;14.73;;;1.50;96.20;;;;;;5079022;28;20406;-82
2020/12/19 05:09:17;;;;;;;20.00;13.55;;;1.50;96.20;;;;;;5098333;28;20404;-82
2020/12/19 05:11:44;;;;;;;21.83;14.13;;;1.50;96.30;;;;;;5090588;28;20415;-81
2020/12/19 05:14:10;;;;;;;21.13;13.77;;;1.50;96.30;;;;;;5111896;28;20415;-82
2020/12/19 05:16:39;;;;;;;21.50;14.65;;;1.50;96.30;;;;;;5108018;28;20533;-82
2020/12/19 05:19:07;;;;;;;19.80;13.90;;;1.50;96.30;;;;;;5086983;28;20523;-82
2020/12/19 05:21:43;;;;;;;19.98;13.82;;;1.50;96.30;;;;;;5100794;28;20449;-82
2020/12/19 05:24:14;;;;;;;20.02;13.38;;;1.50;96.30;;;;;;5091698;28;20409;-82
2020/12/19 05:26:40;;;;;;;20.33;13.10;;;1.50;96.30;;;;;;5084538;28;20412;-82
2020/12/19 05:29:08;;;;;;;20.17;13.93;;;1.40;96.30;;;;;;5104822;28;20427;-81
2020/12/19 05:31:34;;;;;;;17.77;12.50;;;1.40;96.20;;;;;;5092976;28;20844;-81
2020/12/19 05:34:01;;;;;;;26.33;17.58;;;1.40;96.20;;;;;;5091202;28;20424;-81
2020/12/19 05:36:31;;;;;;;22.80;15.03;;;1.40;96.40;;;;;;5110815;28;20449;-82
2020/12/19 05:39:01;;;;;;;20.48;14.02;;;1.40;96.00;;;;;;5091303;28;20400;-81
2020/12/19 05:41:30;;;;;;;20.13;14.05;;;1.50;96.00;;;;;;5093677;28;20402;-81
2020/12/19 05:43:56;;;;;;;19.80;13.50;;;1.50;96.00;;;;;;5090546;28;20462;-81
2020/12/19 05:46:39;;;;;;;19.67;13.63;;;1.40;96.00;;;;;;5111267;28;20413;-81
2020/12/19 05:49:08;;;;;;;21.90;14.77;;;1.50;96.00;;;;;;5090150;28;20513;-82
2020/12/19 05:51:37;;;;;;;23.17;15.55;;;1.40;96.00;;;;;;5091958;28;20416;-82
2020/12/19 05:54:10;;;;;;;20.27;14.43;;;1.40;96.20;;;;;;5108216;28;20412;-82
2020/12/19 05:56:44;;;;;;;21.95;14.43;;;1.40;96.20;;;;;;5093973;28;20416;-81
2020/12/19 05:59:16;;;;;;;24.33;16.15;;;1.40;96.30;;;;;;5082545;28;20447;-81
2020/12/19 06:01:44;;;;;;;22.35;14.52;;;1.40;96.10;;;;;;5112012;28;20420;-81
2020/12/19 06:04:13;;;;;;;19.70;14.35;;;1.40;96.20;;;;;;5088893;28;20978;-80
2020/12/19 06:06:46;;;;;;;20.60;13.60;;;1.40;96.20;;;;;;5115087;28;20442;-80
2020/12/19 06:09:14;;;;;;;18.48;12.82;;;1.40;96.30;;;;;;5091858;28;20494;-80
2020/12/19 06:11:41;;;;;;;19.23;13.82;;;1.30;96.50;;;;;;5094728;28;20767;-81
2020/12/19 06:14:11;;;;;;;21.95;14.85;;;1.40;96.20;;;;;;5113046;28;20392;-79
2020/12/19 06:16:41;;;;;;;19.58;13.70;;;1.30;96.10;;;;;;5106629;28;20420;-80
2020/12/19 06:19:18;;;;;;;19.52;13.65;;;1.40;96.30;;;;;;5096191;28;20408;-81
2020/12/19 06:21:55;;;;;;;22.73;15.32;;;1.30;96.20;;;;;;5092681;28;20416;-80
2020/12/19 06:24:54;;;;;;;17.60;12.90;;;1.30;96.20;;;;;;5096861;28;20427;-81
2020/12/19 06:27:23;;;;;;;22.50;15.10;;;1.30;96.20;;;;;;5061341;28;20406;-80
2020/12/19 06:29:51;;;;;;;26.90;17.17;;;1.30;96.30;;;;;;5091662;28;20420;-81
2020/12/19 06:32:29;;;;;;;18.30;13.37;;;1.30;96.20;;;;;;5109275;28;20412;-81
2020/12/19 06:35:03;;;;;;;23.65;15.38;;;1.30;96.20;;;;;;5095284;28;20420;-80
2020/12/19 06:37:33;;;;;;;19.23;14.00;;;1.30;96.10;;;;;;5078730;28;20420;-80
2020/12/19 06:40:11;;;;;;;20.90;14.75;;;1.30;96.10;;;;;;5095832;28;20416;-81
2020/12/19 06:42:38;;;;;;;19.75;13.35;;;1.30;96.00;;;;;;5077353;28;20444;-80
2020/12/19 06:45:28;;;;;;;20.20;14.20;;;1.30;96.00;;;;;;5091513;28;20448;-81
2020/12/19 06:47:56;;;;;;;19.77;14.13;;;1.30;96.10;;;;;;5109766;28;20477;-80
2020/12/19 06:50:23;;;;;;;19.20;13.80;;;1.30;96.10;;;;;;5094120;28;20398;-81
2020/12/19 06:52:58;;;;;;;18.35;12.88;;;1.30;96.20;;;;;;5089880;28;20457;-81
2020/12/19 06:55:27;;;;;;;19.92;14.18;;;1.20;96.00;;;;;;5104719;28;20492;-81
2020/12/19 06:57:55;;;;;;;20.65;13.65;;;1.30;96.00;;;;;;5100274;28;20845;-80
2020/12/19 07:00:28;;;;;;;18.50;13.77;;;1.30;95.90;;;;;;5093888;28;20825;-80
2020/12/19 07:03:02;;;;;;;19.17;12.98;;;1.30;95.90;;;;;;5082924;28;20404;-81
2020/12/19 07:05:35;;;;;;;17.42;12.68;;;1.30;96.00;;;;;;5095907;28;20474;-81
2020/12/19 07:08:23;;;;;;;17.02;12.93;;;1.30;96.00;;;;;;5090899;28;20824;-83
2020/12/19 07:10:51;;;;;;;18.73;13.07;;;1.30;96.00;;;;;;5075983;28;20402;-83
2020/12/19 07:13:18;;;;;;;18.42;12.93;;;1.30;95.90;;;;;;5076650;28;20402;-82
2020/12/19 07:15:49;;;;;;;20.65;13.20;;;1.30;95.90;;;;;;5089833;28;21100;-83
2020/12/19 07:18:39;;;;;;;19.85;13.98;;;1.30;95.80;;;;;;5089509;28;20814;-83
2020/12/19 07:21:07;;;;;;;20.63;14.57;;;1.30;95.90;;;;;;5084089;28;20480;-83
2020/12/19 07:23:38;;;;;;;21.73;14.30;;;1.40;96.10;;;;;;5088647;28;20418;-84
2020/12/19 07:26:09;;;;;;;19.33;13.10;;;1.40;95.90;;;;;;5093778;28;20792;-84
2020/12/19 07:28:36;;;;;;;19.15;13.60;;;1.30;95.90;;;;;;5088431;28;20553;-85
2020/12/19 07:31:02;;;;;;;17.88;12.95;;;1.40;95.90;;;;;;5090207;28;20450;-84
2020/12/19 07:33:31;;;;;;;19.02;13.35;;;1.40;95.80;;;;;;5113399;28;20436;-84
2020/12/19 07:35:59;;;;;;;18.45;12.45;;;1.40;95.80;;;;;;5093376;28;20492;-83
2020/12/19 07:38:28;;;;;;;17.48;12.30;;;1.40;95.80;;;;;;5076048;28;20518;-83
2020/12/19 07:40:56;;;;;;;17.85;12.30;;;1.40;96.10;;;;;;5107645;28;20916;-83
2020/12/19 07:43:23;;;;;;;18.48;12.18;;;1.40;95.80;;;;;;5095955;28;20436;-83
2020/12/19 07:45:57;;;;;;;15.53;11.30;;;1.40;95.70;;;;;;5092700;28;20465;-83
2020/12/19 07:48:23;;;;;;;16.02;11.50;;;1.40;95.70;;;;;;5095854;28;20401;-82
2020/12/19 07:50:50;;;;;;;16.48;11.32;;;1.40;95.90;;;;;;5088771;28;20405;-82
2020/12/19 07:53:19;;;;;;;14.87;11.13;;;1.40;95.60;;;;;;5094468;28;20393;-84
2020/12/19 07:55:54;;;;;;;15.23;11.00;;;1.40;95.50;;;;;;5085715;28;20491;-84
2020/12/19 07:58:24;;;;;;;15.70;11.05;;;1.40;95.50;;;;;;5075526;28;20417;-85
2020/12/19 08:00:50;;;;;;;14.13;10.57;;;1.50;95.60;;;;;;5090691;28;20396;-87
2020/12/19 08:03:17;;;;;;;17.50;11.27;;;1.50;95.30;;;;;;5094629;28;20917;-85
2020/12/19 08:05:53;;;;;;;14.32;10.48;;;1.50;95.20;;;;;;5108339;28;20420;-84
2020/12/19 08:08:19;;;;;;;14.17;10.53;;;1.50;95.30;;;;;;5074625;28;20398;-84
2020/12/19 08:10:48;;;;;;;13.85;10.38;;;1.50;95.30;;;;;;5091646;28;20418;-84
2020/12/19 08:13:17;;;;;;;13.10;10.07;;;1.50;95.20;;;;;;5074554;28;20410;-84
2020/12/19 08:15:46;;;;;;;15.13;10.27;;;1.50;95.10;;;;;;5073964;28;20418;-82
2020/12/19 08:18:16;;;;;;;13.35;9.90;;;1.50;95.20;;;;;;5091700;28;20449;-83
2020/12/19 08:20:42;;;;;;;14.77;10.57;;;1.60;95.10;;;;;;5112111;28;20451;-83
2020/12/19 08:23:09;;;;;;;17.00;10.95;;;1.60;94.90;;;;;;5094462;28;20422;-83
2020/12/19 08:25:36;;;;;;;13.18;10.05;;;1.50;95.10;;;;;;5091944;28;20491;-83
2020/12/19 08:28:04;;;;;;;13.70;10.00;;;1.60;95.20;;;;;;5090327;28;20418;-82
2020/12/19 08:30:32;;;;;;;13.20;10.05;;;1.60;95.20;;;;;;5092081;28;20398;-81
2020/12/19 08:33:03;;;;;;;13.90;10.20;;;1.60;95.10;;;;;;5080430;28;20867;-80
2020/12/19 08:35:40;;;;;;;13.73;10.35;;;1.60;95.00;;;;;;5112347;28;21191;-81
2020/12/19 08:38:08;;;;;;;13.23;10.02;;;1.60;95.10;;;;;;5084250;28;20402;-82
2020/12/19 08:40:39;;;;;;;14.98;10.32;;;1.60;94.90;;;;;;5092646;28;20410;-81
2020/12/19 08:43:07;;;;;;;13.80;9.88;;;1.70;95.00;;;;;;5072836;28;20785;-81
2020/12/19 08:45:36;;;;;;;13.35;10.18;;;1.70;94.80;;;;;;5092145;28;20487;-82
2020/12/19 08:48:23;;;;;;;14.93;9.98;;;1.70;94.80;;;;;;5091180;28;20398;-82
2020/12/19 08:50:57;;;;;;;14.60;10.20;;;1.70;94.80;;;;;;5087505;28;20420;-83
2020/12/19 08:53:25;;;;;;;13.30;10.13;;;1.70;94.70;;;;;;5072441;28;20406;-83
2020/12/19 08:55:55;;;;;;;13.93;9.82;;;1.70;94.80;;;;;;5074569;28;20394;-82
2020/12/19 08:58:30;;;;;;;14.85;10.57;;;1.70;94.70;;;;;;5073748;28;20394;-79
2020/12/19 09:00:58;;;;;;;14.50;10.93;;;1.70;94.90;;;;;;5094264;28;20396;-82
2020/12/19 09:03:28;;;;;;;14.15;10.32;;;1.70;95.00;;;;;;5094255;28;20408;-83
2020/12/19 09:06:10;;;;;;;13.52;9.60;;;1.80;94.70;;;;;;5090905;28;20460;-83
2020/12/19 09:08:44;;;;;;;13.18;9.35;;;1.80;94.60;;;;;;5073597;28;20401;-82
2020/12/19 09:11:26;;;;;;;14.40;10.30;;;1.80;94.50;;;;;;5072080;28;20395;-81
2020/12/19 09:14:13;;;;;;;12.20;9.48;;;1.80;94.60;;;;;;5073826;28;20459;-81
2020/12/19 09:16:55;;;;;;;15.27;10.48;;;1.80;94.50;;;;;;5072559;28;20812;-81
2020/12/19 09:19:21;;;;;;;16.35;10.15;;;1.80;94.50;;;;;;5072907;28;20445;-82
2020/12/19 09:21:55;;;;;;;14.50;10.38;;;1.80;94.60;;;;;;5089522;28;20813;-84
2020/12/19 09:24:22;;;;;;;14.23;10.45;;;1.80;94.60;;;;;;5112257;28;20390;-81
2020/12/19 09:26:48;;;;;;;14.27;10.52;;;1.90;94.60;;;;;;5109399;28;20443;-83
2020/12/19 09:29:17;;;;;;;14.05;10.50;;;1.90;94.60;;;;;;5093961;28;20435;-83
2020/12/19 09:31:44;;;;;;;14.07;10.65;;;1.90;94.60;;;;;;5098550;28;20408;-82
2020/12/19 09:34:10;;;;;;;14.20;10.40;;;1.90;94.60;;;;;;5095896;28;20402;-81
2020/12/19 09:36:38;;;;;;;13.40;9.67;;;1.90;94.50;;;;;;5076144;28;20424;-81
2020/12/19 09:39:05;;;;;;;13.43;10.30;;;1.90;94.40;;;;;;5077468;28;20405;-81
2020/12/19 09:41:33;;;;;;;13.57;10.05;;;1.90;94.50;;;;;;5075617;28;20482;-82
2020/12/19 09:43:59;;;;;;;16.00;10.57;;;1.90;94.60;;;;;;5060462;28;20506;-82
2020/12/19 09:46:26;;;;;;;14.90;10.15;;;1.90;94.40;;;;;;5075333;28;20613;-81
2020/12/19 09:48:52;;;;;;;12.63;9.77;;;1.90;94.30;;;;;;5095147;28;20446;-80
2020/12/19 09:51:19;;;;;;;13.48;10.30;;;1.90;94.40;;;;;;5087745;28;20442;-82
2020/12/19 09:53:45;;;;;;;14.95;9.85;;;1.90;94.30;;;;;;5094247;28;20868;-82
2020/12/19 09:56:13;;;;;;;14.25;10.57;;;1.90;94.30;;;;;;5095443;28;20394;-83
2020/12/19 09:58:39;;;;;;;15.18;10.15;;;1.90;94.40;;;;;;5093069;28;20741;-82
2020/12/19 10:01:06;;;;;;;15.73;11.00;;;1.90;94.40;;;;;;5094998;28;20418;-82
2020/12/19 10:03:32;;;;;;;13.77;10.07;;;1.80;94.40;;;;;;5088149;28;20428;-83
2020/12/19 10:05:59;;;;;;;14.70;10.57;;;1.90;94.50;;;;;;5115299;28;20456;-83
2020/12/19 10:08:28;;;;;;;14.10;10.18;;;1.90;94.50;;;;;;5095404;28;20396;-83
2020/12/19 10:10:55;;;;;;;13.05;9.75;;;1.90;94.50;;;;;;5096945;28;20455;-82
2020/12/19 10:13:21;;;;;;;13.63;10.00;;;1.90;94.50;;;;;;5111936;28;20902;-82
2020/12/19 10:15:48;;;;;;;14.05;9.95;;;1.90;94.30;;;;;;5097655;28;20397;-81
2020/12/19 10:18:15;;;;;;;15.80;11.10;;;2.00;94.30;;;;;;5092200;28;20410;-81
2020/12/19 10:20:41;;;;;;;12.95;9.70;;;2.00;94.20;;;;;;5094440;28;20502;-81
2020/12/19 10:23:09;;;;;;;12.55;9.43;;;2.00;94.10;;;;;;5075879;28;20498;-81
2020/12/19 10:25:39;;;;;;;12.05;9.27;;;2.00;94.10;;;;;;5076567;28;20426;-82
2020/12/19 10:28:06;;;;;;;12.77;9.55;;;2.00;93.80;;;;;;5060344;28;20781;-81
2020/12/19 10:30:32;;;;;;;15.15;9.63;;;2.00;93.90;;;;;;5074181;28;20397;-82
2020/12/19 10:32:58;;;;;;;12.60;9.10;;;2.00;93.80;;;;;;5094165;28;20394;-82
2020/12/19 10:35:28;;;;;;;12.23;9.02;;;2.10;93.90;;;;;;5088381;28;20462;-82
2020/12/19 10:37:54;;;;;;;13.25;9.60;;;2.10;93.90;;;;;;5096321;28;20983;-81
2020/12/19 10:40:23;;;;;;;13.60;8.90;;;2.10;93.90;;;;;;5101870;28;20493;-81
2020/12/19 10:42:52;;;;;;;11.32;8.77;;;2.10;93.90;;;;;;5092871;28;20432;-81
2020/12/19 10:45:19;;;;;;;12.30;8.90;;;2.10;93.80;;;;;;5092302;28;20483;-81
2020/12/19 10:47:46;;;;;;;11.15;8.65;;;2.10;93.80;;;;;;5076502;28;20697;-82
2020/12/19 10:50:17;;;;;;;12.02;9.30;;;2.10;93.80;;;;;;5092413;28;20450;-82
2020/12/19 10:52:43;;;;;;;13.73;9.85;;;2.10;93.90;;;;;;5093836;28;20421;-82
2020/12/19 10:55:11;;;;;;;12.53;9.30;;;2.10;93.80;;;;;;5075803;28;20741;-81
2020/12/19 10:57:37;;;;;;;13.75;9.75;;;2.10;93.70;;;;;;5093490;28;20412;-81
2020/12/19 11:00:05;;;;;;;11.40;8.93;;;2.10;93.80;;;;;;5083236;28;20413;-82
2020/12/19 11:02:31;;;;;;;12.32;9.40;;;2.10;93.80;;;;;;5056497;28;20425;-82
2020/12/19 11:04:58;;;;;;;12.57;9.30;;;2.10;93.70;;;;;;5074639;28;20421;-81
2020/12/19 11:07:25;;;;;;;12.80;9.07;;;2.10;93.70;;;;;;5073969;28;20425;-82
2020/12/19 11:09:52;;;;;;;14.13;9.00;;;2.10;93.70;;;;;;5093847;28;20398;-82
2020/12/19 11:12:18;;;;;;;12.35;9.43;;;2.10;93.70;;;;;;5068629;28;20396;-82
2020/12/19 11:14:45;;;;;;;12.25;9.18;;;2.10;93.70;;;;;;5114558;28;20407;-82
2020/12/19 11:17:12;;;;;;;13.15;9.52;;;2.20;93.50;;;;;;5086114;28;20871;-82
2020/12/19 11:19:38;;;;;;;11.50;9.03;;;2.10;93.60;;;;;;5075682;28;20402;-82
2020/12/19 11:22:05;;;;;;;11.43;8.73;;;2.10;93.70;;;;;;5078098;28;20888;-83
2020/12/19 11:24:33;;;;;;;10.77;8.77;;;2.10;93.60;;;;;;5096389;28;20785;-83
2020/12/19 11:26:59;;;;;;;11.07;8.40;;;2.20;93.70;;;;;;5091860;28;20464;-82
2020/12/19 11:29:26;;;;;;;11.25;8.65;;;2.20;93.60;;;;;;5093624;28;20402;-82
2020/12/19 11:31:53;;;;;;;11.40;8.98;;;2.10;93.40;;;;;;5100154;28;20426;-83
2020/12/19 11:34:20;;;;;;;12.63;9.07;;;2.10;93.60;;;;;;5074550;28;20452;-82
2020/12/19 11:36:47;;;;;;;11.17;8.17;;;2.10;93.60;;;;;;5094715;28;20402;-83
2020/12/19 11:39:15;;;;;;;10.85;8.30;;;2.20;93.30;;;;;;5090603;28;21082;-82
2020/12/19 11:41:42;;;;;;;12.37;8.63;;;2.20;93.30;;;;;;5092530;28;20426;-81
2020/12/19 11:44:10;;;;;;;11.57;9.07;;;2.20;93.30;;;;;;5073546;28;20508;-83
2020/12/19 11:46:37;;;;;;;36.95;21.85;;;2.20;93.10;;;;;;5076209;28;20414;-82
2020/12/19 11:49:05;;;;;;;39.90;24.95;;;2.20;93.40;;;;;;5091921;28;20410;-82
2020/12/19 11:51:33;;;;;;;27.52;19.73;;;2.20;93.30;;;;;;5087012;28;20412;-82
2020/12/19 11:54:01;;;;;;;13.63;11.32;;;2.20;93.50;;;;;;5086907;28;20410;-83
2020/12/19 11:56:31;;;;;;;17.65;15.02;;;2.40;92.80;;;;;;5076036;28;20405;-83
2020/12/19 11:58:58;;;;;;;11.18;9.25;;;2.40;92.90;;;;;;5076041;28;20947;-83
2020/12/19 12:01:29;;;;;;;10.98;8.68;;;2.40;93.00;;;;;;5094373;28;20886;-82
2020/12/19 12:03:57;;;;;;;11.18;8.80;;;2.30;93.10;;;;;;5059305;28;20919;-82
2020/12/19 12:06:31;;;;;;;14.30;9.63;;;2.30;93.10;;;;;;5094535;28;20428;-85
2020/12/19 12:12:39;;;;;;;13.20;9.63;;;2.30;93.10;;;;;;5099264;22;20494;-73
2020/12/19 12:15:05;;;;;;;11.93;9.37;;;2.30;93.20;;;;;;5081800;28;20439;-72
2020/12/19 12:17:32;;;;;;;12.13;8.93;;;2.30;93.30;;;;;;5082803;28;20413;-72
2020/12/19 12:20:00;;;;;;;11.35;8.50;;;2.40;93.20;;;;;;5048930;28;20851;-73
2020/12/19 12:22:27;;;;;;;11.47;8.50;;;2.40;92.90;;;;;;5070768;28;20399;-73
2020/12/19 12:24:53;;;;;;;9.93;8.18;;;2.40;92.90;;;;;;5072951;28;20830;-73
2020/12/19 12:27:20;;;;;;;11.40;8.77;;;2.40;93.00;;;;;;5069369;28;20849;-73
2020/12/19 12:29:48;;;;;;;10.82;8.77;;;2.30;92.90;;;;;;5090310;28;20402;-73
2020/12/19 12:32:18;;;;;;;12.07;8.70;;;2.30;93.00;;;;;;5054333;28;20419;-73
2020/12/19 12:34:44;;;;;;;10.45;8.45;;;2.30;93.00;;;;;;5070013;28;20889;-72
2020/12/19 12:37:15;;;;;;;19.33;13.30;;;2.30;93.10;;;;;;5063148;28;20784;-72
2020/12/19 12:39:41;;;;;;;17.70;13.00;;;2.20;93.10;;;;;;5072944;28;20413;-72
2020/12/19 12:42:13;;;;;;;13.70;9.32;;;2.20;93.30;;;;;;5076561;28;20450;-73
2020/12/19 12:44:40;;;;;;;12.32;9.60;;;2.30;93.20;;;;;;5070286;28;20423;-72
2020/12/19 12:47:07;;;;;;;17.00;13.35;;;2.30;93.10;;;;;;5057487;28;20434;-73
2020/12/19 12:49:35;;;;;;;14.52;10.45;;;2.30;93.20;;;;;;5090584;28;20463;-73
2020/12/19 12:52:04;;;;;;;14.10;11.05;;;2.30;93.30;;;;;;5053364;28;20736;-73
2020/12/19 12:54:31;;;;;;;14.13;10.32;;;2.30;93.40;;;;;;5069764;28;20476;-73